Sie sind vermutlich noch nicht im Forum angemeldet - Klicken Sie hier um sich kostenlos anzumelden  

Synchrondatenbank (von Arne Kaul) | Deutsche Synchronkartei | Seriensynchron - SeSyDaB | dubDB | Die vergessenen Filme || Datenschutz
Sie können sich hier anmelden
Dieses Forum hat 3.302 Themen
und zur Zeit 38.981 Beiträge
Sie haben keine Schreibrechte
 Spielfilme 1990 bis 2009  »Neues Thema erstellen«
Forum Information
   Betreff Absender Antworten Zugriffe Letzter Beitrag
Paris, Paris - Monsieur Pigoil auf dem Weg zum Glück (2008) Porgy 13 1.112 29.12.2008 17:20
Doom - Der Film Synchronliste Christian Muermann 7 822 28.12.2008 15:16
Joy Ride 2 - Dead Ahead (USA 2008) Mew Mew 1 159 28.12.2008 14:55
Taboo (USA 2002) Mew Mew 5 537 27.12.2008 21:40
"Baywatch - Hochzeit auf Hawaii" Hendrik Meyerhof 6 1.990 27.12.2008 17:58
Fantastische Reise ins Spielzeugland (1997) mit Hörproben Edigrieg 4 455 27.12.2008 14:03
Synchronliste "Verrückte Weihnachten" (1, 2) Frank Brenner 25 2.524 26.12.2008 00:03
Sinbad - Der Herr der sieben Meere (2003) schakal 6 351 25.12.2008 20:46
Merry Christmas (2005) Porgy 3 357 25.12.2008 11:46
Santa´s Slay (USA 2005) Mew Mew 11 526 25.12.2008 01:25
Mickys grosses Weihnachtsfest (USA 2001) Mew Mew 7 630 25.12.2008 00:46
Ein Weihnachtsmärchen (UK, 2001) Dylan 0 307 24.12.2008 14:11
Robin Hood (2009) Samedi 0 76 22.12.2008 12:56
Synchronbesetzung von Kinsey?? Schweizer 8 722 21.12.2008 21:21
Lady Musketier - Alle für eine (D,USA,HR 2004) mooniz 6 375 21.12.2008 17:57
Cold Comfort Farm (1995) schakal 0 126 21.12.2008 17:47
Der Tod des Unglaublichen Hulk (TV) (1990) (1, 2) Franky-El 16 1.581 20.12.2008 22:56
Get Smart - Wir lieben es, die Welt zu retten! (2008) (1, 2, 3, 4, 5, 6, Letzte Seite) Samedi 103 8.307 19.12.2008 23:43
Flawless - Ein tadelloses Verbrechen (UK 2007) Mew Mew 0 186 19.12.2008 11:10
Lifesavers - Die Lebensretter (1994) Jensheyroth 0 166 18.12.2008 22:25
Fail Safe (2000) (1, 2) PeeWee 18 1.064 14.12.2008 20:43
Dirty Movie (OT: The Amateurs) SexyBack1402 9 798 13.12.2008 10:07
Grilled Hendrik Meyerhof 7 952 12.12.2008 10:09
Zauber der Liebe (USA 2007) Mew Mew 3 406 11.12.2008 10:27
Wiedersehen mit Brideshead (UK 2008) Mew Mew 7 623 10.12.2008 20:53
Lion in Winter - Kampf um die Krone des Königs (2003/ Synchro 2008) SFC 0 159 07.12.2008 11:21
Die Gebrüder Weihnachtsmann Schlitzi 6 648 06.12.2008 08:24
Wanted (2008) Blade 14 1.407 04.12.2008 22:46
Die Madagascar Pinguine - In vorweihnachtlicher Misson (USA 2005) Mew Mew 0 353 29.11.2008 20:33
The Women - Von großen und kleinen Affären (USA 2008) (1, 2) Mew Mew 28 2.586 29.11.2008 12:03
Broken Flowers (USA 2005 DF 2005) Synchronliste Frank Brenner 3 542 29.11.2008 08:29
My Mom's New Boyfriend (2008) smeagol 4 492 28.11.2008 17:33
I am Legend Kira Nerys 8 874 28.11.2008 13:08
Zufällig verheiratet ForumOnkel 9 791 27.11.2008 20:08
A History of Violence (USA 2005) Grammaton Cleric 6 732 27.11.2008 16:53
The Bank Job (2008) Grammaton Cleric 10 854 25.11.2008 20:38
Female Agents (F 2008) Porgy 2 257 22.11.2008 21:10
Dead Space: Downfall (2008) Kirk20 5 743 22.11.2008 02:07
Nicotina (MEX 2003) Lammers 6 416 19.11.2008 22:30
Das Lächeln der Sterne (2008) murphy 1 447 18.11.2008 01:49
 Sprung Seite « zurück  1 - 47.5  48.5  49.5  50.5  51.5  52.5  53.5  54.5 - 83  weiter »

Farb-Legende: blau = Spekulation, orange = Trailer-Besetzung, grün = endgültige Besetzung, rot = Korrektur/Ergänzung zur endgültigen Besetzung

Wir lie... also, wir finden Synchron ganz in Ordnung.
Erreichbar unter
215072.homepagemodules.de -- forum.serien-synchron.de

Weitere Smileys auf www.smilie-harvester.de
Xobor Forum Software von Xobor | Forum, Fotos, Chat und mehr mit Xobor